sensor_id;sensor_type;location;lat;lon;timestamp;P1;durP1;ratioP1;P2;durP2;ratioP2
55312;SDS011;46892;45.668;11.756;2023-02-10T00:01:25;40.90;;;23.90;;
55312;SDS011;46892;45.668;11.756;2023-02-10T00:03:52;38.83;;;23.20;;
55312;SDS011;46892;45.668;11.756;2023-02-10T00:06:19;40.03;;;23.73;;
55312;SDS011;46892;45.668;11.756;2023-02-10T00:08:49;38.83;;;21.80;;
55312;SDS011;46892;45.668;11.756;2023-02-10T00:11:16;35.80;;;22.07;;
55312;SDS011;46892;45.668;11.756;2023-02-10T00:13:43;42.17;;;22.53;;
55312;SDS011;46892;45.668;11.756;2023-02-10T00:16:10;42.27;;;22.63;;
55312;SDS011;46892;45.668;11.756;2023-02-10T00:18:38;45.30;;;23.50;;
55312;SDS011;46892;45.668;11.756;2023-02-10T00:21:14;43.90;;;23.20;;
55312;SDS011;46892;45.668;11.756;2023-02-10T00:23:41;41.33;;;22.87;;
55312;SDS011;46892;45.668;11.756;2023-02-10T00:26:09;40.93;;;22.60;;
55312;SDS011;46892;45.668;11.756;2023-02-10T00:28:36;39.53;;;23.37;;
55312;SDS011;46892;45.668;11.756;2023-02-10T00:31:05;45.67;;;24.43;;
55312;SDS011;46892;45.668;11.756;2023-02-10T00:33:32;41.78;;;23.60;;
55312;SDS011;46892;45.668;11.756;2023-02-10T00:35:57;36.93;;;22.73;;
55312;SDS011;46892;45.668;11.756;2023-02-10T00:38:23;43.60;;;23.60;;
55312;SDS011;46892;45.668;11.756;2023-02-10T00:40:48;41.80;;;23.57;;
55312;SDS011;46892;45.668;11.756;2023-02-10T00:43:14;45.80;;;23.77;;
55312;SDS011;46892;45.668;11.756;2023-02-10T00:45:40;38.97;;;22.63;;
55312;SDS011;46892;45.668;11.756;2023-02-10T00:48:05;38.70;;;22.63;;
55312;SDS011;46892;45.668;11.756;2023-02-10T00:50:31;44.77;;;26.43;;
55312;SDS011;46892;45.668;11.756;2023-02-10T00:52:56;47.13;;;27.37;;
55312;SDS011;46892;45.668;11.756;2023-02-10T00:55:22;40.70;;;22.63;;
55312;SDS011;46892;45.668;11.756;2023-02-10T00:57:48;37.93;;;22.93;;
55312;SDS011;46892;45.668;11.756;2023-02-10T01:00:13;40.57;;;23.97;;
55312;SDS011;46892;45.668;11.756;2023-02-10T01:02:39;46.00;;;24.53;;
55312;SDS011;46892;45.668;11.756;2023-02-10T01:05:05;43.80;;;24.17;;
55312;SDS011;46892;45.668;11.756;2023-02-10T01:07:31;40.97;;;24.10;;
55312;SDS011;46892;45.668;11.756;2023-02-10T01:09:56;42.00;;;22.80;;
55312;SDS011;46892;45.668;11.756;2023-02-10T01:12:22;38.43;;;22.90;;
55312;SDS011;46892;45.668;11.756;2023-02-10T01:14:48;41.57;;;22.47;;
55312;SDS011;46892;45.668;11.756;2023-02-10T01:17:14;42.23;;;23.07;;
55312;SDS011;46892;45.668;11.756;2023-02-10T01:19:40;36.63;;;21.67;;
55312;SDS011;46892;45.668;11.756;2023-02-10T01:22:06;36.47;;;21.67;;
55312;SDS011;46892;45.668;11.756;2023-02-10T01:24:31;42.20;;;22.70;;
55312;SDS011;46892;45.668;11.756;2023-02-10T01:26:57;33.77;;;21.17;;
55312;SDS011;46892;45.668;11.756;2023-02-10T01:29:23;38.07;;;20.73;;
55312;SDS011;46892;45.668;11.756;2023-02-10T01:31:48;38.23;;;21.13;;
55312;SDS011;46892;45.668;11.756;2023-02-10T01:34:14;41.07;;;22.47;;
55312;SDS011;46892;45.668;11.756;2023-02-10T01:36:40;39.77;;;22.03;;
55312;SDS011;46892;45.668;11.756;2023-02-10T01:39:05;35.57;;;23.20;;
55312;SDS011;46892;45.668;11.756;2023-02-10T01:41:31;43.77;;;23.00;;
55312;SDS011;46892;45.668;11.756;2023-02-10T01:44:01;44.03;;;23.40;;
55312;SDS011;46892;45.668;11.756;2023-02-10T01:46:29;39.03;;;21.90;;
55312;SDS011;46892;45.668;11.756;2023-02-10T01:48:57;35.53;;;21.97;;
55312;SDS011;46892;45.668;11.756;2023-02-10T01:51:35;36.10;;;21.27;;
55312;SDS011;46892;45.668;11.756;2023-02-10T01:54:05;37.95;;;22.40;;
55312;SDS011;46892;45.668;11.756;2023-02-10T01:56:37;38.80;;;21.03;;
55312;SDS011;46892;45.668;11.756;2023-02-10T01:59:04;35.37;;;20.23;;
55312;SDS011;46892;45.668;11.756;2023-02-10T02:01:30;38.70;;;20.17;;
55312;SDS011;46892;45.668;11.756;2023-02-10T02:03:56;38.87;;;23.00;;
55312;SDS011;46892;45.668;11.756;2023-02-10T02:06:23;34.50;;;20.63;;
55312;SDS011;46892;45.668;11.756;2023-02-10T02:08:49;36.77;;;20.40;;
55312;SDS011;46892;45.668;11.756;2023-02-10T02:24:48;33.15;;;19.48;;
55312;SDS011;46892;45.668;11.756;2023-02-10T02:30:12;36.33;;;20.17;;
55312;SDS011;46892;45.668;11.756;2023-02-10T02:32:59;37.63;;;20.60;;
55312;SDS011;46892;45.668;11.756;2023-02-10T02:35:26;35.33;;;20.10;;
55312;SDS011;46892;45.668;11.756;2023-02-10T02:37:57;35.77;;;19.47;;
55312;SDS011;46892;45.668;11.756;2023-02-10T02:40:22;38.27;;;20.53;;
55312;SDS011;46892;45.668;11.756;2023-02-10T02:42:48;39.43;;;21.97;;
55312;SDS011;46892;45.668;11.756;2023-02-10T02:45:50;39.77;;;20.97;;
55312;SDS011;46892;45.668;11.756;2023-02-10T03:04:16;35.53;;;19.97;;
55312;SDS011;46892;45.668;11.756;2023-02-10T03:06:43;37.20;;;20.37;;
55312;SDS011;46892;45.668;11.756;2023-02-10T03:09:09;35.00;;;19.07;;
55312;SDS011;46892;45.668;11.756;2023-02-10T03:11:35;35.13;;;20.10;;
55312;SDS011;46892;45.668;11.756;2023-02-10T03:14:01;35.87;;;20.13;;
55312;SDS011;46892;45.668;11.756;2023-02-10T03:16:27;38.23;;;20.90;;
55312;SDS011;46892;45.668;11.756;2023-02-10T03:18:52;34.87;;;19.60;;
55312;SDS011;46892;45.668;11.756;2023-02-10T03:21:18;36.93;;;21.27;;
55312;SDS011;46892;45.668;11.756;2023-02-10T03:23:43;35.10;;;20.10;;
55312;SDS011;46892;45.668;11.756;2023-02-10T03:26:09;35.07;;;18.83;;
55312;SDS011;46892;45.668;11.756;2023-02-10T03:28:35;33.83;;;20.03;;
55312;SDS011;46892;45.668;11.756;2023-02-10T03:31:02;33.47;;;19.00;;
55312;SDS011;46892;45.668;11.756;2023-02-10T03:33:32;31.58;;;17.98;;
55312;SDS011;46892;45.668;11.756;2023-02-10T03:35:57;31.00;;;17.27;;
55312;SDS011;46892;45.668;11.756;2023-02-10T03:38:23;30.67;;;17.73;;
55312;SDS011;46892;45.668;11.756;2023-02-10T03:40:51;31.50;;;17.47;;
55312;SDS011;46892;45.668;11.756;2023-02-10T03:43:17;34.00;;;19.50;;
55312;SDS011;46892;45.668;11.756;2023-02-10T03:45:43;33.13;;;18.93;;
55312;SDS011;46892;45.668;11.756;2023-02-10T03:48:09;31.30;;;18.20;;
55312;SDS011;46892;45.668;11.756;2023-02-10T03:50:35;29.60;;;17.97;;
55312;SDS011;46892;45.668;11.756;2023-02-10T03:53:00;33.47;;;17.77;;
55312;SDS011;46892;45.668;11.756;2023-02-10T03:55:26;30.17;;;18.37;;
55312;SDS011;46892;45.668;11.756;2023-02-10T03:57:52;31.03;;;17.83;;
55312;SDS011;46892;45.668;11.756;2023-02-10T04:00:18;30.23;;;17.47;;
55312;SDS011;46892;45.668;11.756;2023-02-10T04:02:44;30.10;;;18.00;;
55312;SDS011;46892;45.668;11.756;2023-02-10T04:05:10;34.23;;;18.63;;
55312;SDS011;46892;45.668;11.756;2023-02-10T04:07:36;41.63;;;17.90;;
55312;SDS011;46892;45.668;11.756;2023-02-10T04:10:02;35.53;;;17.40;;
55312;SDS011;46892;45.668;11.756;2023-02-10T04:12:29;32.70;;;18.30;;
55312;SDS011;46892;45.668;11.756;2023-02-10T04:14:55;33.93;;;18.00;;
55312;SDS011;46892;45.668;11.756;2023-02-10T04:17:20;29.07;;;15.77;;
55312;SDS011;46892;45.668;11.756;2023-02-10T04:19:46;29.43;;;15.70;;
55312;SDS011;46892;45.668;11.756;2023-02-10T04:22:12;30.47;;;16.23;;
55312;SDS011;46892;45.668;11.756;2023-02-10T04:24:37;27.47;;;15.73;;
55312;SDS011;46892;45.668;11.756;2023-02-10T04:27:03;33.47;;;16.07;;
55312;SDS011;46892;45.668;11.756;2023-02-10T04:29:28;32.23;;;15.13;;
55312;SDS011;46892;45.668;11.756;2023-02-10T04:31:54;27.87;;;16.17;;
55312;SDS011;46892;45.668;11.756;2023-02-10T04:34:20;27.70;;;15.77;;
55312;SDS011;46892;45.668;11.756;2023-02-10T04:36:45;26.63;;;15.67;;
55312;SDS011;46892;45.668;11.756;2023-02-10T04:39:11;26.87;;;15.30;;
55312;SDS011;46892;45.668;11.756;2023-02-10T04:41:37;28.07;;;15.27;;
55312;SDS011;46892;45.668;11.756;2023-02-10T04:44:02;31.13;;;16.23;;
55312;SDS011;46892;45.668;11.756;2023-02-10T04:46:28;28.37;;;14.83;;
55312;SDS011;46892;45.668;11.756;2023-02-10T04:48:54;28.23;;;15.23;;
55312;SDS011;46892;45.668;11.756;2023-02-10T04:51:20;28.47;;;14.57;;
55312;SDS011;46892;45.668;11.756;2023-02-10T04:53:45;29.13;;;15.03;;
55312;SDS011;46892;45.668;11.756;2023-02-10T04:56:14;28.47;;;14.60;;
55312;SDS011;46892;45.668;11.756;2023-02-10T04:58:40;24.80;;;13.50;;
55312;SDS011;46892;45.668;11.756;2023-02-10T05:01:05;26.27;;;14.33;;
55312;SDS011;46892;45.668;11.756;2023-02-10T05:03:31;23.97;;;12.83;;
55312;SDS011;46892;45.668;11.756;2023-02-10T05:05:57;23.30;;;11.60;;
55312;SDS011;46892;45.668;11.756;2023-02-10T05:08:22;22.43;;;11.70;;
55312;SDS011;46892;45.668;11.756;2023-02-10T05:10:49;22.87;;;12.33;;
55312;SDS011;46892;45.668;11.756;2023-02-10T05:13:16;26.23;;;12.80;;
55312;SDS011;46892;45.668;11.756;2023-02-10T05:15:41;23.10;;;12.47;;
55312;SDS011;46892;45.668;11.756;2023-02-10T05:18:07;21.67;;;11.87;;
55312;SDS011;46892;45.668;11.756;2023-02-10T05:20:33;24.30;;;12.60;;
55312;SDS011;46892;45.668;11.756;2023-02-10T05:22:58;26.83;;;13.63;;
55312;SDS011;46892;45.668;11.756;2023-02-10T05:25:24;24.57;;;12.47;;
55312;SDS011;46892;45.668;11.756;2023-02-10T05:27:49;23.53;;;12.13;;
55312;SDS011;46892;45.668;11.756;2023-02-10T05:30:15;22.97;;;11.93;;
55312;SDS011;46892;45.668;11.756;2023-02-10T05:32:41;22.80;;;13.03;;
55312;SDS011;46892;45.668;11.756;2023-02-10T05:35:08;27.43;;;13.13;;
55312;SDS011;46892;45.668;11.756;2023-02-10T05:37:34;24.77;;;13.30;;
55312;SDS011;46892;45.668;11.756;2023-02-10T05:40:00;22.47;;;12.37;;
55312;SDS011;46892;45.668;11.756;2023-02-10T05:42:26;22.97;;;12.67;;
55312;SDS011;46892;45.668;11.756;2023-02-10T05:44:52;21.77;;;11.30;;
55312;SDS011;46892;45.668;11.756;2023-02-10T05:47:18;20.83;;;12.50;;
55312;SDS011;46892;45.668;11.756;2023-02-10T05:49:43;25.10;;;14.23;;
55312;SDS011;46892;45.668;11.756;2023-02-10T05:52:09;26.07;;;14.20;;
55312;SDS011;46892;45.668;11.756;2023-02-10T05:54:35;27.43;;;12.97;;
55312;SDS011;46892;45.668;11.756;2023-02-10T05:57:01;23.00;;;12.87;;
55312;SDS011;46892;45.668;11.756;2023-02-10T05:59:26;23.30;;;12.83;;
55312;SDS011;46892;45.668;11.756;2023-02-10T06:01:52;25.13;;;13.47;;
55312;SDS011;46892;45.668;11.756;2023-02-10T06:04:18;23.27;;;12.57;;
55312;SDS011;46892;45.668;11.756;2023-02-10T06:06:43;25.57;;;13.83;;
55312;SDS011;46892;45.668;11.756;2023-02-10T06:09:09;23.23;;;12.97;;
55312;SDS011;46892;45.668;11.756;2023-02-10T06:11:35;30.43;;;15.63;;
55312;SDS011;46892;45.668;11.756;2023-02-10T06:14:00;25.57;;;13.83;;
55312;SDS011;46892;45.668;11.756;2023-02-10T06:16:26;33.07;;;17.03;;
55312;SDS011;46892;45.668;11.756;2023-02-10T06:18:52;35.50;;;17.17;;
55312;SDS011;46892;45.668;11.756;2023-02-10T06:21:18;33.57;;;15.90;;
55312;SDS011;46892;45.668;11.756;2023-02-10T06:23:44;32.27;;;15.10;;
55312;SDS011;46892;45.668;11.756;2023-02-10T06:26:10;26.40;;;13.70;;
55312;SDS011;46892;45.668;11.756;2023-02-10T06:28:36;32.87;;;15.07;;
55312;SDS011;46892;45.668;11.756;2023-02-10T06:31:01;24.93;;;14.10;;
55312;SDS011;46892;45.668;11.756;2023-02-10T06:33:28;28.87;;;15.43;;
55312;SDS011;46892;45.668;11.756;2023-02-10T06:35:54;25.77;;;13.83;;
55312;SDS011;46892;45.668;11.756;2023-02-10T06:38:19;26.03;;;14.77;;
55312;SDS011;46892;45.668;11.756;2023-02-10T06:40:45;32.63;;;15.97;;
55312;SDS011;46892;45.668;11.756;2023-02-10T06:43:11;48.57;;;29.67;;
55312;SDS011;46892;45.668;11.756;2023-02-10T06:45:37;40.97;;;22.83;;
55312;SDS011;46892;45.668;11.756;2023-02-10T06:48:03;32.87;;;18.10;;
55312;SDS011;46892;45.668;11.756;2023-02-10T06:50:29;37.83;;;20.27;;
55312;SDS011;46892;45.668;11.756;2023-02-10T06:52:54;35.03;;;20.03;;
55312;SDS011;46892;45.668;11.756;2023-02-10T06:55:20;36.43;;;17.07;;
55312;SDS011;46892;45.668;11.756;2023-02-10T06:57:46;27.10;;;14.83;;
55312;SDS011;46892;45.668;11.756;2023-02-10T07:00:12;26.03;;;14.17;;
55312;SDS011;46892;45.668;11.756;2023-02-10T07:02:39;27.13;;;13.27;;
55312;SDS011;46892;45.668;11.756;2023-02-10T07:05:06;27.07;;;13.97;;
55312;SDS011;46892;45.668;11.756;2023-02-10T07:07:35;29.37;;;14.97;;
55312;SDS011;46892;45.668;11.756;2023-02-10T07:10:01;26.83;;;14.47;;
55312;SDS011;46892;45.668;11.756;2023-02-10T07:12:27;30.80;;;15.03;;
55312;SDS011;46892;45.668;11.756;2023-02-10T07:14:53;27.23;;;13.90;;
55312;SDS011;46892;45.668;11.756;2023-02-10T07:17:19;27.97;;;15.17;;
55312;SDS011;46892;45.668;11.756;2023-02-10T07:19:45;23.87;;;13.53;;
55312;SDS011;46892;45.668;11.756;2023-02-10T07:22:11;26.00;;;15.17;;
55312;SDS011;46892;45.668;11.756;2023-02-10T07:24:37;27.47;;;16.03;;
55312;SDS011;46892;45.668;11.756;2023-02-10T07:27:03;23.67;;;14.40;;
55312;SDS011;46892;45.668;11.756;2023-02-10T07:29:29;27.73;;;15.20;;
55312;SDS011;46892;45.668;11.756;2023-02-10T07:31:55;28.20;;;16.30;;
55312;SDS011;46892;45.668;11.756;2023-02-10T07:34:23;29.70;;;15.87;;
55312;SDS011;46892;45.668;11.756;2023-02-10T07:36:49;28.40;;;16.00;;
55312;SDS011;46892;45.668;11.756;2023-02-10T07:39:19;27.10;;;16.10;;
55312;SDS011;46892;45.668;11.756;2023-02-10T07:41:45;36.43;;;19.13;;
55312;SDS011;46892;45.668;11.756;2023-02-10T07:44:11;47.57;;;24.90;;
55312;SDS011;46892;45.668;11.756;2023-02-10T07:46:37;42.90;;;23.87;;
55312;SDS011;46892;45.668;11.756;2023-02-10T07:49:02;44.17;;;24.17;;
55312;SDS011;46892;45.668;11.756;2023-02-10T07:51:28;43.03;;;24.00;;
55312;SDS011;46892;45.668;11.756;2023-02-10T07:53:54;45.20;;;25.33;;
55312;SDS011;46892;45.668;11.756;2023-02-10T07:56:19;44.30;;;25.10;;
55312;SDS011;46892;45.668;11.756;2023-02-10T07:58:45;51.93;;;27.57;;
55312;SDS011;46892;45.668;11.756;2023-02-10T08:01:10;48.07;;;27.47;;
55312;SDS011;46892;45.668;11.756;2023-02-10T08:03:36;51.33;;;27.23;;
55312;SDS011;46892;45.668;11.756;2023-02-10T08:06:02;40.60;;;24.03;;
55312;SDS011;46892;45.668;11.756;2023-02-10T08:08:28;29.37;;;17.33;;
55312;SDS011;46892;45.668;11.756;2023-02-10T08:10:54;31.20;;;16.83;;
55312;SDS011;46892;45.668;11.756;2023-02-10T08:13:20;36.43;;;19.93;;
55312;SDS011;46892;45.668;11.756;2023-02-10T08:15:46;23.37;;;14.03;;
55312;SDS011;46892;45.668;11.756;2023-02-10T08:18:12;29.70;;;16.93;;
55312;SDS011;46892;45.668;11.756;2023-02-10T08:20:37;28.60;;;16.20;;
55312;SDS011;46892;45.668;11.756;2023-02-10T08:23:05;27.87;;;14.97;;
55312;SDS011;46892;45.668;11.756;2023-02-10T08:25:31;28.00;;;16.57;;
55312;SDS011;46892;45.668;11.756;2023-02-10T08:27:57;23.00;;;14.97;;
55312;SDS011;46892;45.668;11.756;2023-02-10T08:30:24;24.10;;;14.33;;
55312;SDS011;46892;45.668;11.756;2023-02-10T08:32:49;24.47;;;14.80;;
55312;SDS011;46892;45.668;11.756;2023-02-10T08:35:15;23.50;;;14.80;;
55312;SDS011;46892;45.668;11.756;2023-02-10T08:37:41;24.57;;;15.50;;
55312;SDS011;46892;45.668;11.756;2023-02-10T08:40:07;24.93;;;15.50;;
55312;SDS011;46892;45.668;11.756;2023-02-10T08:42:33;23.00;;;15.13;;
55312;SDS011;46892;45.668;11.756;2023-02-10T08:44:59;23.57;;;13.93;;
55312;SDS011;46892;45.668;11.756;2023-02-10T08:47:25;21.27;;;12.87;;
55312;SDS011;46892;45.668;11.756;2023-02-10T08:49:52;35.70;;;18.87;;
55312;SDS011;46892;45.668;11.756;2023-02-10T08:52:17;32.93;;;18.03;;
55312;SDS011;46892;45.668;11.756;2023-02-10T08:54:45;21.67;;;13.87;;
55312;SDS011;46892;45.668;11.756;2023-02-10T08:57:11;25.70;;;14.43;;
55312;SDS011;46892;45.668;11.756;2023-02-10T08:59:37;21.33;;;12.80;;
55312;SDS011;46892;45.668;11.756;2023-02-10T09:02:02;20.30;;;13.23;;
55312;SDS011;46892;45.668;11.756;2023-02-10T09:04:28;20.03;;;12.60;;
55312;SDS011;46892;45.668;11.756;2023-02-10T09:06:54;20.33;;;12.70;;
55312;SDS011;46892;45.668;11.756;2023-02-10T09:09:20;20.67;;;13.13;;
55312;SDS011;46892;45.668;11.756;2023-02-10T09:11:53;22.17;;;13.47;;
55312;SDS011;46892;45.668;11.756;2023-02-10T09:14:19;18.83;;;11.23;;
55312;SDS011;46892;45.668;11.756;2023-02-10T09:16:45;21.57;;;13.60;;
55312;SDS011;46892;45.668;11.756;2023-02-10T09:19:11;14.00;;;8.27;;
55312;SDS011;46892;45.668;11.756;2023-02-10T09:21:37;15.60;;;8.77;;
55312;SDS011;46892;45.668;11.756;2023-02-10T09:24:03;14.03;;;8.03;;
55312;SDS011;46892;45.668;11.756;2023-02-10T09:26:29;14.83;;;8.90;;
55312;SDS011;46892;45.668;11.756;2023-02-10T09:28:54;19.37;;;10.60;;
55312;SDS011;46892;45.668;11.756;2023-02-10T09:31:20;16.57;;;9.60;;
55312;SDS011;46892;45.668;11.756;2023-02-10T09:33:47;15.90;;;8.70;;
55312;SDS011;46892;45.668;11.756;2023-02-10T09:36:14;15.30;;;9.20;;
55312;SDS011;46892;45.668;11.756;2023-02-10T09:38:44;18.00;;;10.03;;
55312;SDS011;46892;45.668;11.756;2023-02-10T09:41:19;14.40;;;8.80;;
55312;SDS011;46892;45.668;11.756;2023-02-10T09:46:55;16.07;;;9.30;;
55312;SDS011;46892;45.668;11.756;2023-02-10T09:55:40;16.75;;;10.20;;
55312;SDS011;46892;45.668;11.756;2023-02-10T10:04:17;14.30;;;7.10;;
55312;SDS011;46892;45.668;11.756;2023-02-10T10:06:46;17.10;;;9.93;;
55312;SDS011;46892;45.668;11.756;2023-02-10T10:11:59;18.87;;;8.80;;
55312;SDS011;46892;45.668;11.756;2023-02-10T10:14:31;15.03;;;9.17;;
55312;SDS011;46892;45.668;11.756;2023-02-10T10:20:26;17.60;;;10.10;;
55312;SDS011;46892;45.668;11.756;2023-02-10T10:31:08;15.67;;;10.40;;
55312;SDS011;46892;45.668;11.756;2023-02-10T10:36:27;17.17;;;10.47;;
55312;SDS011;46892;45.668;11.756;2023-02-10T10:39:00;19.30;;;10.60;;
55312;SDS011;46892;45.668;11.756;2023-02-10T10:41:46;16.23;;;9.83;;
55312;SDS011;46892;45.668;11.756;2023-02-10T10:44:15;18.17;;;10.17;;
55312;SDS011;46892;45.668;11.756;2023-02-10T10:55:22;18.60;;;9.93;;
55312;SDS011;46892;45.668;11.756;2023-02-10T10:57:54;18.97;;;10.37;;
55312;SDS011;46892;45.668;11.756;2023-02-10T11:00:23;16.40;;;10.20;;
55312;SDS011;46892;45.668;11.756;2023-02-10T11:02:51;15.83;;;9.77;;
55312;SDS011;46892;45.668;11.756;2023-02-10T11:05:37;18.57;;;10.20;;
55312;SDS011;46892;45.668;11.756;2023-02-10T11:08:04;17.63;;;10.53;;
55312;SDS011;46892;45.668;11.756;2023-02-10T11:10:33;16.63;;;9.73;;
55312;SDS011;46892;45.668;11.756;2023-02-10T11:13:03;15.37;;;9.27;;
55312;SDS011;46892;45.668;11.756;2023-02-10T11:18:04;15.70;;;9.47;;
55312;SDS011;46892;45.668;11.756;2023-02-10T11:20:33;16.40;;;9.53;;
55312;SDS011;46892;45.668;11.756;2023-02-10T11:23:02;18.77;;;10.20;;
55312;SDS011;46892;45.668;11.756;2023-02-10T11:25:31;13.60;;;8.90;;
55312;SDS011;46892;45.668;11.756;2023-02-10T11:27:58;14.33;;;8.70;;
55312;SDS011;46892;45.668;11.756;2023-02-10T11:30:27;12.80;;;8.27;;
55312;SDS011;46892;45.668;11.756;2023-02-10T11:32:58;17.13;;;9.77;;
55312;SDS011;46892;45.668;11.756;2023-02-10T11:35:26;16.70;;;9.23;;
55312;SDS011;46892;45.668;11.756;2023-02-10T11:38:03;20.20;;;9.53;;
55312;SDS011;46892;45.668;11.756;2023-02-10T11:43:18;14.03;;;9.50;;
55312;SDS011;46892;45.668;11.756;2023-02-10T11:45:53;17.43;;;9.07;;
55312;SDS011;46892;45.668;11.756;2023-02-10T11:48:24;14.73;;;9.83;;
55312;SDS011;46892;45.668;11.756;2023-02-10T11:51:06;14.03;;;8.93;;
55312;SDS011;46892;45.668;11.756;2023-02-10T11:53:39;14.67;;;8.90;;
55312;SDS011;46892;45.668;11.756;2023-02-10T11:56:13;13.57;;;8.30;;
55312;SDS011;46892;45.668;11.756;2023-02-10T12:23:55;14.53;;;8.57;;
55312;SDS011;46892;45.668;11.756;2023-02-10T12:29:22;11.40;;;7.10;;
55312;SDS011;46892;45.668;11.756;2023-02-10T12:46:25;11.33;;;6.70;;
55312;SDS011;46892;45.668;11.756;2023-02-10T12:56:47;10.03;;;6.30;;
55312;SDS011;46892;45.668;11.756;2023-02-10T12:59:23;10.47;;;6.27;;
55312;SDS011;46892;45.668;11.756;2023-02-10T13:02:24;11.40;;;6.73;;
55312;SDS011;46892;45.668;11.756;2023-02-10T13:04:57;10.40;;;6.70;;
55312;SDS011;46892;45.668;11.756;2023-02-10T13:07:32;10.50;;;6.23;;
55312;SDS011;46892;45.668;11.756;2023-02-10T13:10:21;9.73;;;6.47;;
55312;SDS011;46892;45.668;11.756;2023-02-10T13:13:07;15.03;;;7.33;;
55312;SDS011;46892;45.668;11.756;2023-02-10T13:18:48;12.60;;;6.37;;
55312;SDS011;46892;45.668;11.756;2023-02-10T13:21:22;9.90;;;6.43;;
55312;SDS011;46892;45.668;11.756;2023-02-10T13:23:56;11.53;;;6.20;;
55312;SDS011;46892;45.668;11.756;2023-02-10T13:34:35;9.23;;;5.50;;
55312;SDS011;46892;45.668;11.756;2023-02-10T13:37:14;8.77;;;5.33;;
55312;SDS011;46892;45.668;11.756;2023-02-10T13:39:51;9.37;;;5.60;;
55312;SDS011;46892;45.668;11.756;2023-02-10T13:42:26;8.33;;;5.00;;
55312;SDS011;46892;45.668;11.756;2023-02-10T13:45:11;8.87;;;5.73;;
55312;SDS011;46892;45.668;11.756;2023-02-10T13:50:19;7.67;;;5.00;;
55312;SDS011;46892;45.668;11.756;2023-02-10T13:52:57;7.20;;;4.70;;
55312;SDS011;46892;45.668;11.756;2023-02-10T14:00:29;10.30;;;4.53;;
55312;SDS011;46892;45.668;11.756;2023-02-10T14:05:49;7.80;;;4.97;;
55312;SDS011;46892;45.668;11.756;2023-02-10T14:08:29;8.47;;;4.67;;
55312;SDS011;46892;45.668;11.756;2023-02-10T14:13:40;7.40;;;5.10;;
55312;SDS011;46892;45.668;11.756;2023-02-10T14:16:36;9.30;;;5.10;;
55312;SDS011;46892;45.668;11.756;2023-02-10T14:19:19;8.63;;;5.68;;
55312;SDS011;46892;45.668;11.756;2023-02-10T14:21:46;8.10;;;5.10;;
55312;SDS011;46892;45.668;11.756;2023-02-10T14:24:17;7.20;;;4.80;;
55312;SDS011;46892;45.668;11.756;2023-02-10T14:26:47;8.63;;;5.47;;
55312;SDS011;46892;45.668;11.756;2023-02-10T14:29:15;8.13;;;5.10;;
55312;SDS011;46892;45.668;11.756;2023-02-10T14:31:44;8.67;;;4.90;;
55312;SDS011;46892;45.668;11.756;2023-02-10T14:34:22;8.82;;;5.38;;
55312;SDS011;46892;45.668;11.756;2023-02-10T14:36:52;9.03;;;5.93;;
55312;SDS011;46892;45.668;11.756;2023-02-10T14:39:20;8.07;;;4.90;;
55312;SDS011;46892;45.668;11.756;2023-02-10T14:41:47;8.03;;;4.90;;
55312;SDS011;46892;45.668;11.756;2023-02-10T14:44:56;9.67;;;5.43;;
55312;SDS011;46892;45.668;11.756;2023-02-10T14:47:20;7.90;;;5.13;;
55312;SDS011;46892;45.668;11.756;2023-02-10T14:49:52;8.23;;;4.97;;
55312;SDS011;46892;45.668;11.756;2023-02-10T14:52:26;8.35;;;5.13;;
55312;SDS011;46892;45.668;11.756;2023-02-10T14:54:52;8.33;;;4.80;;
55312;SDS011;46892;45.668;11.756;2023-02-10T14:57:18;7.73;;;4.70;;
55312;SDS011;46892;45.668;11.756;2023-02-10T15:00:19;8.00;;;4.23;;
55312;SDS011;46892;45.668;11.756;2023-02-10T15:02:38;7.40;;;4.63;;
55312;SDS011;46892;45.668;11.756;2023-02-10T15:05:07;7.57;;;4.83;;
55312;SDS011;46892;45.668;11.756;2023-02-10T15:07:35;10.43;;;5.18;;
55312;SDS011;46892;45.668;11.756;2023-02-10T15:12:51;29.83;;;14.20;;
55312;SDS011;46892;45.668;11.756;2023-02-10T15:15:31;16.83;;;7.40;;
55312;SDS011;46892;45.668;11.756;2023-02-10T15:18:12;13.37;;;6.33;;
55312;SDS011;46892;45.668;11.756;2023-02-10T15:23:54;12.43;;;6.80;;
55312;SDS011;46892;45.668;11.756;2023-02-10T15:26:22;13.60;;;7.67;;
55312;SDS011;46892;45.668;11.756;2023-02-10T15:29:05;11.32;;;6.78;;
55312;SDS011;46892;45.668;11.756;2023-02-10T15:31:34;14.90;;;8.53;;
55312;SDS011;46892;45.668;11.756;2023-02-10T15:34:14;14.70;;;8.33;;
55312;SDS011;46892;45.668;11.756;2023-02-10T15:36:50;21.67;;;12.30;;
55312;SDS011;46892;45.668;11.756;2023-02-10T15:39:37;16.87;;;9.90;;
55312;SDS011;46892;45.668;11.756;2023-02-10T15:44:41;14.57;;;9.07;;
55312;SDS011;46892;45.668;11.756;2023-02-10T15:49:44;27.30;;;13.43;;
55312;SDS011;46892;45.668;11.756;2023-02-10T15:54:51;9.40;;;6.20;;
55312;SDS011;46892;45.668;11.756;2023-02-10T15:57:19;10.73;;;6.37;;
55312;SDS011;46892;45.668;11.756;2023-02-10T15:59:44;11.67;;;5.60;;
55312;SDS011;46892;45.668;11.756;2023-02-10T16:02:13;8.90;;;5.30;;
55312;SDS011;46892;45.668;11.756;2023-02-10T16:04:39;8.90;;;6.03;;
55312;SDS011;46892;45.668;11.756;2023-02-10T16:07:09;10.37;;;6.53;;
55312;SDS011;46892;45.668;11.756;2023-02-10T16:09:38;14.38;;;7.78;;
55312;SDS011;46892;45.668;11.756;2023-02-10T16:12:04;11.33;;;7.07;;
55312;SDS011;46892;45.668;11.756;2023-02-10T16:14:29;10.47;;;6.73;;
55312;SDS011;46892;45.668;11.756;2023-02-10T16:16:56;10.97;;;6.77;;
55312;SDS011;46892;45.668;11.756;2023-02-10T16:19:23;13.57;;;7.37;;
55312;SDS011;46892;45.668;11.756;2023-02-10T16:21:51;13.10;;;7.70;;
55312;SDS011;46892;45.668;11.756;2023-02-10T16:24:21;12.43;;;7.63;;
55312;SDS011;46892;45.668;11.756;2023-02-10T16:26:48;16.20;;;6.97;;
55312;SDS011;46892;45.668;11.756;2023-02-10T16:29:15;10.93;;;6.97;;
55312;SDS011;46892;45.668;11.756;2023-02-10T16:31:45;11.67;;;6.20;;
55312;SDS011;46892;45.668;11.756;2023-02-10T16:34:11;14.30;;;7.90;;
55312;SDS011;46892;45.668;11.756;2023-02-10T16:36:37;14.30;;;8.73;;
55312;SDS011;46892;45.668;11.756;2023-02-10T16:39:04;12.83;;;7.77;;
55312;SDS011;46892;45.668;11.756;2023-02-10T16:41:30;14.73;;;9.20;;
55312;SDS011;46892;45.668;11.756;2023-02-10T16:43:56;26.30;;;14.17;;
55312;SDS011;46892;45.668;11.756;2023-02-10T16:46:21;31.00;;;16.77;;
55312;SDS011;46892;45.668;11.756;2023-02-10T16:48:47;29.50;;;15.60;;
55312;SDS011;46892;45.668;11.756;2023-02-10T16:51:13;24.27;;;13.73;;
55312;SDS011;46892;45.668;11.756;2023-02-10T16:53:39;22.23;;;12.60;;
55312;SDS011;46892;45.668;11.756;2023-02-10T16:56:05;26.53;;;11.77;;
55312;SDS011;46892;45.668;11.756;2023-02-10T16:58:38;21.80;;;11.93;;
55312;SDS011;46892;45.668;11.756;2023-02-10T17:01:03;20.43;;;12.03;;
55312;SDS011;46892;45.668;11.756;2023-02-10T17:03:29;19.07;;;11.27;;
55312;SDS011;46892;45.668;11.756;2023-02-10T17:05:54;21.87;;;12.47;;
55312;SDS011;46892;45.668;11.756;2023-02-10T17:08:20;22.63;;;13.40;;